Aérodrome :
LOGIN :

S'inscrire | Disclaimer

   EN    FR    IT 

 










Légende :    VFR   VFR Marginal   IFR   IFR Intensif   IFR Très Intensif
Visi : 
Plafond : 
>= 8 km
>= 3000ft
5 à 8 km
1000 à 3000 ft
1500m à 5 km
500 à 1000 ft
800 à 1500m
200 à 500 ft
< 800m
< 200 ft
Symboles :   Orages  Brouillard  Fortes neiges  Fortes précipitations  Vent > 20 kt
SIGMETs :   Divers  Orages  Givrage  Turbulence  Onde Orograph.  Cendres Volcan.







- Altitude de l'aérodrome : 294 ft
- Code IATA : NAP


LIRN - Naples Capodichino

DERNIER METAR :
  • 230720Z 02023G39KT CAVOK 05/M07 Q1022 NOSIG

METARs EXPIRÉS :
  • 230650Z 03030G42KT CAVOK 05/M05 Q1021 NOSIG
  • 230620Z 03026KT CAVOK 05/M07 Q1020 NOSIG
  • 230550Z 02023G34KT 9999 FEW030 06/M08 Q1020 NOSIG
  • 230520Z 03020KT 350V050 CAVOK 07/M08 Q1019 NOSIG
  • 230450Z 02015KT CAVOK 08/M08 Q1020 NOSIG

TAF TAF LIRN
Valide du 23 à 06h jusqu'au 24 à 06h UTC


230500Z 2306/2406 04018G28KT 9999 FEW030
TEMPO 2306/2315 04025G35KT
Pas de NOTAMs connus pour ce terrain.
3 SIGMETs publiés pour la FIR Roma (LIRR) :
 
Orages noyés dans la masse
LIRR SIGMET 9 VALID 230620/230820 LIIB
LIRR ROMA FIR EMBD TS FCST WI N3821 E01248 - N3824 E01451 - N3901 E01619 - N3849 E01852 - N3637 E01857 - N3631 E01558 - N3651 E01337 - N3727 E01222 - N3821 E01248 TOP FL270 MOV S NC=
Turbulence forte
LIRR SIGMET 8 VALID 230530/230830 LIIB
LIRR ROMA FIR SEV TURB FCST WI N3858 E01622 - N3853 E01841 - N3725 E01759 - N3705 E01550 - N3815 E01525 - N3847 E01206 - N3757 E01036 - N3858 E00810 - N4055 E00943 - N4228 E01006 - N4315 E01030 - N4327 E01230 - N4118 E01439 - N4110 E01513 - N3858 E01622 FL010/140 STNR NC=
Turbulence forte
LIRR SIGMET 7 VALID 230530/230830 LIIB
LIRR ROMA FIR SEV TURB FCST WI N4331 E01316 - N4108 E01138 - N3839 E01031 - N3730 E01132 - N3632 E01219 - N3628 E01623 - N3849 E01848 - N3854 E01646 - N3907 E01616 - N4113 E01503 - N4127 E01421 - N4255 E01304 - N4331 E01316 FL200/380 MOV SE NC=



MET'MAP, la Météo Aéronautique d'un coup d'oeil ! - Copyright ORBIFLY Décembre 2007 - Disclaimer

ORBIFLY MET'MAP TEAM :

Programmation & Développement : Alexandra Zaïnal
Conception & Développement : Baudouin d'Aumeries
Co-Programmation & Développement : Marc-Olivier Méhu
Soutien technique & logistique : Manuel Goepfert

Contact : metmap@orbifly.com




SOURCES & CREDITS :

   NOAA